Time;durP1;ratioP1;P1;durP2;ratioP2;P2;SDS_P1;SDS_P2;PMS_P1;PMS_P2;Temp;Humidity;BMP_temperature;BMP_pressure;BME280_temperature;BME280_humidity;BME280_pressure;Samples;Min_cycle;Max_cycle;Signal;HPM_P1;HPM_P2
2022/03/11 00:01:09;;;;;;;11.37;9.20;;;;;;;;;;5072532;28;20983;-79
2022/03/11 00:03:36;;;;;;;10.87;9.40;;;;;;;;;;5072372;28;20465;-77
2022/03/11 00:06:04;;;;;;;11.40;10.20;;;;;;;;;;5072826;28;20488;-76
2022/03/11 00:08:31;;;;;;;10.07;9.10;;;;;;;;;;5072806;28;20448;-76
2022/03/11 00:10:58;;;;;;;11.00;9.53;;;;;;;;;;5072632;28;20501;-77
2022/03/11 00:13:25;;;;;;;13.13;10.07;;;;;;;;;;5072445;28;20472;-78
2022/03/11 00:15:52;;;;;;;10.30;9.30;;;;;;;;;;5072572;28;20986;-77
2022/03/11 00:18:20;;;;;;;11.90;10.10;;;;;;;;;;5072584;28;20463;-77
2022/03/11 00:20:47;;;;;;;10.33;9.33;;;;;;;;;;5072496;28;20510;-77
2022/03/11 00:23:15;;;;;;;13.20;9.97;;;;;;;;;;5072025;28;20470;-78
2022/03/11 00:25:42;;;;;;;11.63;9.87;;;;;;;;;;5071898;28;20492;-78
2022/03/11 00:28:09;;;;;;;11.90;10.10;;;;;;;;;;5072460;28;20456;-78
2022/03/11 00:30:36;;;;;;;11.30;10.10;;;;;;;;;;5072436;28;20500;-78
2022/03/11 00:33:03;;;;;;;17.83;14.63;;;;;;;;;;5071786;28;20475;-77
2022/03/11 00:35:32;;;;;;;13.87;11.40;;;;;;;;;;5072381;28;20483;-78
2022/03/11 00:37:59;;;;;;;13.33;11.70;;;;;;;;;;5072339;28;20457;-77
2022/03/11 00:40:27;;;;;;;14.70;12.27;;;;;;;;;;5072715;28;20458;-76
2022/03/11 00:42:55;;;;;;;14.00;11.37;;;;;;;;;;5071966;28;20850;-78
2022/03/11 00:45:23;;;;;;;13.83;12.40;;;;;;;;;;5073269;28;20998;-77
2022/03/11 00:47:50;;;;;;;15.97;11.80;;;;;;;;;;5073285;28;20472;-77
2022/03/11 00:50:17;;;;;;;18.30;12.07;;;;;;;;;;5074005;28;20443;-77
2022/03/11 00:52:44;;;;;;;16.17;11.63;;;;;;;;;;5072591;28;20456;-78
2022/03/11 00:55:12;;;;;;;15.80;12.10;;;;;;;;;;5072195;28;20453;-76
2022/03/11 00:57:40;;;;;;;18.80;11.80;;;;;;;;;;5072357;28;20516;-77
2022/03/11 01:00:08;;;;;;;14.97;12.83;;;;;;;;;;5072506;28;20500;-76
2022/03/11 01:02:35;;;;;;;13.37;11.97;;;;;;;;;;5072920;28;20496;-77
2022/03/11 01:05:04;;;;;;;14.17;12.23;;;;;;;;;;5073619;28;20456;-76
2022/03/11 01:07:31;;;;;;;15.37;12.60;;;;;;;;;;5071841;28;20429;-76
2022/03/11 01:09:58;;;;;;;15.07;13.23;;;;;;;;;;5072865;28;20443;-76
2022/03/11 01:12:25;;;;;;;13.67;12.27;;;;;;;;;;5072978;28;20468;-78
2022/03/11 01:14:53;;;;;;;15.60;12.50;;;;;;;;;;5072097;28;20441;-77
2022/03/11 01:17:20;;;;;;;17.57;12.73;;;;;;;;;;5072601;28;20480;-76
2022/03/11 01:19:47;;;;;;;17.60;13.97;;;;;;;;;;5071856;28;20453;-77
2022/03/11 01:22:14;;;;;;;15.90;14.20;;;;;;;;;;5071456;28;20465;-76
2022/03/11 01:24:42;;;;;;;16.50;14.07;;;;;;;;;;5071626;28;20452;-77
2022/03/11 01:27:09;;;;;;;15.90;13.83;;;;;;;;;;5071529;28;20455;-76
2022/03/11 01:29:36;;;;;;;16.60;14.03;;;;;;;;;;5071470;28;20439;-78
2022/03/11 01:32:04;;;;;;;16.20;14.03;;;;;;;;;;5071510;28;20466;-77
2022/03/11 01:34:31;;;;;;;18.87;14.30;;;;;;;;;;5070864;28;20441;-77
2022/03/11 01:36:59;;;;;;;17.00;14.70;;;;;;;;;;5071063;28;20477;-77
2022/03/11 01:39:26;;;;;;;18.30;14.63;;;;;;;;;;5071163;28;20478;-78
2022/03/11 01:41:53;;;;;;;17.13;14.60;;;;;;;;;;5071270;28;20465;-77
2022/03/11 01:44:20;;;;;;;16.37;14.03;;;;;;;;;;5070992;28;20460;-76
2022/03/11 01:46:47;;;;;;;16.63;14.97;;;;;;;;;;5071098;28;20813;-76
2022/03/11 01:49:15;;;;;;;17.47;15.60;;;;;;;;;;5071189;28;20447;-77
2022/03/11 01:51:43;;;;;;;20.53;15.77;;;;;;;;;;5071224;28;20470;-75
2022/03/11 01:54:10;;;;;;;18.80;15.50;;;;;;;;;;5070925;28;20534;-78
2022/03/11 01:56:38;;;;;;;18.87;15.97;;;;;;;;;;5071047;28;20480;-77
2022/03/11 01:59:06;;;;;;;20.27;15.50;;;;;;;;;;5071396;28;20445;-76
2022/03/11 02:01:33;;;;;;;17.93;16.00;;;;;;;;;;5072303;28;20469;-78
2022/03/11 02:04:00;;;;;;;19.37;16.50;;;;;;;;;;5071436;28;20442;-76
2022/03/11 02:06:30;;;;;;;16.80;15.03;;;;;;;;;;5070961;28;20437;-77
2022/03/11 02:08:57;;;;;;;19.17;15.47;;;;;;;;;;5071132;28;20445;-78
2022/03/11 02:11:24;;;;;;;17.20;15.40;;;;;;;;;;5070732;28;21041;-77
2022/03/11 02:13:52;;;;;;;19.00;16.00;;;;;;;;;;5070799;28;20444;-76
2022/03/11 02:16:20;;;;;;;18.40;16.50;;;;;;;;;;5070844;28;20476;-76
2022/03/11 02:18:47;;;;;;;18.83;16.30;;;;;;;;;;5071189;28;20495;-77
2022/03/11 02:21:15;;;;;;;19.90;17.17;;;;;;;;;;5070842;28;20769;-77
2022/03/11 02:23:45;;;;;;;21.70;16.90;;;;;;;;;;5070824;28;20450;-76
2022/03/11 02:26:12;;;;;;;20.40;16.70;;;;;;;;;;5071029;28;20441;-78
2022/03/11 02:28:39;;;;;;;20.70;17.40;;;;;;;;;;5070860;28;20793;-76
2022/03/11 02:31:06;;;;;;;19.90;16.77;;;;;;;;;;5070735;28;20461;-78
2022/03/11 02:33:34;;;;;;;20.30;17.27;;;;;;;;;;5070493;28;20456;-77
2022/03/11 02:36:01;;;;;;;23.90;17.77;;;;;;;;;;5070626;28;20444;-78
2022/03/11 02:38:28;;;;;;;19.40;17.30;;;;;;;;;;5070619;28;20527;-78
2022/03/11 02:40:56;;;;;;;21.60;17.33;;;;;;;;;;5070779;28;20424;-77
2022/03/11 02:43:23;;;;;;;20.63;18.40;;;;;;;;;;5070341;28;20869;-76
2022/03/11 02:45:51;;;;;;;21.67;18.17;;;;;;;;;;5070874;28;20449;-76
2022/03/11 02:48:18;;;;;;;20.00;17.40;;;;;;;;;;5070761;28;20453;-77
2022/03/11 02:50:45;;;;;;;21.63;17.97;;;;;;;;;;5073524;28;20975;-77
2022/03/11 02:53:12;;;;;;;24.07;19.03;;;;;;;;;;5074309;28;20476;-78
2022/03/11 02:55:39;;;;;;;27.80;19.70;;;;;;;;;;5074417;28;20440;-77
2022/03/11 02:58:08;;;;;;;22.17;18.53;;;;;;;;;;5074431;28;20480;-78
2022/03/11 03:00:35;;;;;;;20.57;18.33;;;;;;;;;;5074363;28;20463;-77
2022/03/11 03:03:02;;;;;;;21.27;18.60;;;;;;;;;;5073772;28;20460;-77
2022/03/11 03:05:29;;;;;;;24.57;20.13;;;;;;;;;;5074085;28;20467;-77
2022/03/11 03:07:56;;;;;;;22.87;18.83;;;;;;;;;;5073796;28;20841;-77
2022/03/11 03:10:23;;;;;;;20.93;18.33;;;;;;;;;;5073761;28;20444;-77
2022/03/11 03:12:50;;;;;;;24.43;18.53;;;;;;;;;;5073453;28;20452;-76
2022/03/11 03:15:19;;;;;;;21.13;18.20;;;;;;;;;;5074254;28;20444;-77
2022/03/11 03:17:46;;;;;;;24.73;18.90;;;;;;;;;;5073987;28;20476;-78
2022/03/11 03:20:14;;;;;;;23.53;20.00;;;;;;;;;;5073860;28;20444;-76
2022/03/11 03:22:41;;;;;;;24.20;19.73;;;;;;;;;;5073216;28;20468;-76
2022/03/11 03:25:09;;;;;;;27.50;19.90;;;;;;;;;;5073523;28;20820;-76
2022/03/11 03:27:36;;;;;;;21.67;19.33;;;;;;;;;;5073704;28;20819;-77
2022/03/11 03:30:03;;;;;;;24.10;19.80;;;;;;;;;;5073680;28;20453;-76
2022/03/11 03:32:32;;;;;;;26.97;19.90;;;;;;;;;;5073665;28;20464;-78
2022/03/11 03:34:59;;;;;;;25.37;21.20;;;;;;;;;;5073788;28;20429;-76
2022/03/11 03:37:26;;;;;;;22.50;19.10;;;;;;;;;;5076777;28;20829;-76
2022/03/11 03:39:53;;;;;;;26.00;20.60;;;;;;;;;;5076284;28;20472;-77
2022/03/11 03:42:22;;;;;;;25.37;21.27;;;;;;;;;;5075388;28;20456;-76
2022/03/11 03:44:49;;;;;;;29.57;21.90;;;;;;;;;;5072969;28;20449;-77
2022/03/11 03:47:16;;;;;;;25.33;20.33;;;;;;;;;;5073463;28;20440;-76
2022/03/11 03:49:44;;;;;;;24.70;20.60;;;;;;;;;;5076661;28;20480;-76
2022/03/11 03:52:12;;;;;;;26.30;21.70;;;;;;;;;;5077890;28;20472;-78
2022/03/11 03:54:39;;;;;;;29.53;21.90;;;;;;;;;;5076208;28;20516;-76
2022/03/11 03:57:06;;;;;;;25.10;21.10;;;;;;;;;;5081007;28;20477;-76
2022/03/11 03:59:33;;;;;;;25.33;20.10;;;;;;;;;;5079970;28;20527;-76
2022/03/11 04:02:00;;;;;;;27.17;20.93;;;;;;;;;;5078303;28;20480;-76
2022/03/11 04:04:27;;;;;;;25.63;21.00;;;;;;;;;;5076618;28;20447;-76
2022/03/11 04:06:56;;;;;;;27.10;21.00;;;;;;;;;;5075889;28;20853;-77
2022/03/11 04:09:23;;;;;;;26.03;20.10;;;;;;;;;;5076774;28;20452;-76
2022/03/11 04:11:50;;;;;;;25.00;19.77;;;;;;;;;;5076643;28;20456;-76
2022/03/11 04:14:17;;;;;;;26.80;20.43;;;;;;;;;;5075991;28;20460;-76
2022/03/11 04:16:44;;;;;;;25.67;21.30;;;;;;;;;;5075892;28;20534;-76
2022/03/11 04:19:11;;;;;;;25.63;21.27;;;;;;;;;;5074378;28;20441;-76
2022/03/11 04:21:38;;;;;;;24.93;19.93;;;;;;;;;;5073469;28;20463;-78
2022/03/11 04:24:13;;;;;;;23.70;20.00;;;;;;;;;;5072627;28;20440;-77
2022/03/11 04:26:40;;;;;;;24.13;18.87;;;;;;;;;;5072966;28;20439;-76
2022/03/11 04:29:07;;;;;;;24.90;20.13;;;;;;;;;;5072290;28;20935;-76
2022/03/11 04:31:34;;;;;;;23.67;19.47;;;;;;;;;;5072457;28;20469;-76
2022/03/11 04:34:02;;;;;;;23.80;20.00;;;;;;;;;;5071999;28;20966;-76
2022/03/11 04:36:31;;;;;;;23.83;19.23;;;;;;;;;;5072386;28;20440;-76
2022/03/11 04:38:58;;;;;;;26.07;20.27;;;;;;;;;;5072090;28;20518;-76
2022/03/11 04:41:26;;;;;;;25.03;19.70;;;;;;;;;;5072232;28;20440;-76
2022/03/11 04:43:53;;;;;;;27.93;20.57;;;;;;;;;;5072174;28;20452;-77
2022/03/11 04:46:20;;;;;;;23.20;18.83;;;;;;;;;;5072164;28;20445;-76
2022/03/11 04:48:48;;;;;;;24.10;19.80;;;;;;;;;;5072043;28;20448;-77
2022/03/11 04:51:15;;;;;;;24.63;19.67;;;;;;;;;;5071738;28;20465;-77
2022/03/11 04:53:42;;;;;;;23.93;18.60;;;;;;;;;;5071560;28;20955;-76
2022/03/11 04:56:09;;;;;;;22.50;18.70;;;;;;;;;;5072174;28;20519;-75
2022/03/11 04:58:37;;;;;;;23.40;19.03;;;;;;;;;;5071922;28;20476;-76
2022/03/11 05:01:04;;;;;;;21.37;16.90;;;;;;;;;;5071370;28;20853;-76
2022/03/11 05:03:31;;;;;;;21.93;17.53;;;;;;;;;;5071542;28;20460;-78
2022/03/11 05:05:58;;;;;;;24.10;16.70;;;;;;;;;;5071933;28;20444;-76
2022/03/11 05:08:25;;;;;;;19.40;15.97;;;;;;;;;;5071887;28;20441;-77
2022/03/11 05:10:52;;;;;;;19.93;15.90;;;;;;;;;;5071743;28;20502;-77
2022/03/11 05:13:19;;;;;;;21.17;15.93;;;;;;;;;;5071282;28;21023;-76
2022/03/11 05:15:48;;;;;;;18.67;16.00;;;;;;;;;;5071471;28;20835;-76
2022/03/11 05:18:15;;;;;;;19.87;16.70;;;;;;;;;;5071616;28;20476;-77
2022/03/11 05:20:42;;;;;;;19.40;15.40;;;;;;;;;;5075328;28;20444;-76
2022/03/11 05:23:09;;;;;;;19.77;15.27;;;;;;;;;;5076177;28;20482;-77
2022/03/11 05:25:36;;;;;;;19.43;15.63;;;;;;;;;;5076089;28;20445;-77
2022/03/11 05:28:03;;;;;;;19.17;14.90;;;;;;;;;;5076662;28;20857;-76
2022/03/11 05:30:30;;;;;;;19.00;14.30;;;;;;;;;;5074411;28;20444;-77
2022/03/11 05:32:58;;;;;;;18.20;14.10;;;;;;;;;;5071132;28;20478;-77
2022/03/11 05:35:25;;;;;;;23.53;17.07;;;;;;;;;;5071534;28;20547;-77
2022/03/11 05:37:52;;;;;;;19.00;14.23;;;;;;;;;;5071597;28;20534;-76
2022/03/11 05:40:20;;;;;;;17.30;13.97;;;;;;;;;;5061358;28;20508;-78
2022/03/11 05:42:47;;;;;;;21.80;14.37;;;;;;;;;;5043425;28;20469;-77
2022/03/11 05:45:14;;;;;;;16.00;13.53;;;;;;;;;;5051671;28;20868;-76
2022/03/11 05:47:42;;;;;;;18.27;13.07;;;;;;;;;;5051380;28;20857;-76
2022/03/11 05:50:11;;;;;;;17.83;13.20;;;;;;;;;;5051146;28;20967;-78
2022/03/11 05:52:38;;;;;;;20.93;13.07;;;;;;;;;;5051350;28;20462;-78
2022/03/11 05:55:06;;;;;;;15.10;12.37;;;;;;;;;;5051126;28;20991;-79
2022/03/11 05:57:34;;;;;;;15.50;11.93;;;;;;;;;;5051324;28;20847;-77
2022/03/11 06:00:01;;;;;;;15.80;12.57;;;;;;;;;;5051478;28;20499;-78
2022/03/11 06:02:28;;;;;;;14.67;11.30;;;;;;;;;;5051279;28;20461;-77
2022/03/11 06:04:55;;;;;;;14.70;11.60;;;;;;;;;;5051269;28;20553;-77
2022/03/11 06:07:23;;;;;;;13.40;11.20;;;;;;;;;;5051406;28;20449;-77
2022/03/11 06:09:50;;;;;;;16.43;11.53;;;;;;;;;;5051340;28;20928;-78
2022/03/11 06:12:19;;;;;;;12.33;10.97;;;;;;;;;;5051427;28;20512;-76
2022/03/11 06:14:46;;;;;;;13.50;11.23;;;;;;;;;;5051414;28;20584;-77
2022/03/11 06:17:13;;;;;;;16.43;11.60;;;;;;;;;;5051832;28;20453;-77
2022/03/11 06:19:40;;;;;;;12.60;10.93;;;;;;;;;;5051659;28;20875;-77
2022/03/11 06:22:07;;;;;;;14.67;11.40;;;;;;;;;;5051466;28;20453;-77
2022/03/11 06:24:35;;;;;;;14.50;11.33;;;;;;;;;;5052521;28;20515;-78
2022/03/11 06:27:02;;;;;;;15.27;10.90;;;;;;;;;;5055512;28;20445;-75
2022/03/11 06:29:29;;;;;;;12.83;10.20;;;;;;;;;;5055829;28;20437;-76
2022/03/11 06:31:56;;;;;;;16.43;11.50;;;;;;;;;;5055579;28;20470;-78
2022/03/11 06:34:24;;;;;;;12.33;10.33;;;;;;;;;;5054948;28;20461;-76
2022/03/11 06:36:51;;;;;;;12.30;10.17;;;;;;;;;;5055865;28;20564;-77
2022/03/11 06:39:18;;;;;;;13.07;9.67;;;;;;;;;;5055212;28;20485;-77
2022/03/11 06:41:46;;;;;;;13.57;10.43;;;;;;;;;;5057207;28;20457;-77
2022/03/11 06:44:16;;;;;;;13.83;10.10;;;;;;;;;;5059893;28;20442;-79
2022/03/11 06:46:43;;;;;;;11.93;9.80;;;;;;;;;;5058919;28;20453;-77
2022/03/11 06:49:11;;;;;;;12.90;9.97;;;;;;;;;;5059057;28;20445;-76
2022/03/11 06:51:38;;;;;;;11.17;10.00;;;;;;;;;;5059649;28;20568;-78
2022/03/11 06:54:07;;;;;;;12.00;10.70;;;;;;;;;;5058348;28;20487;-77
2022/03/11 06:56:35;;;;;;;11.60;10.40;;;;;;;;;;5056406;28;20449;-79
2022/03/11 06:59:03;;;;;;;13.70;9.50;;;;;;;;;;5057694;28;20577;-76
2022/03/11 07:01:30;;;;;;;14.33;11.63;;;;;;;;;;5057071;28;20446;-78
2022/03/11 07:03:57;;;;;;;11.57;10.03;;;;;;;;;;5055057;28;20525;-76
2022/03/11 07:06:24;;;;;;;12.67;9.43;;;;;;;;;;5055216;28;20445;-77
2022/03/11 07:08:52;;;;;;;14.17;8.70;;;;;;;;;;5055011;28;20434;-77
2022/03/11 07:11:19;;;;;;;11.80;10.00;;;;;;;;;;5054875;28;20453;-77
2022/03/11 07:13:46;;;;;;;9.47;8.37;;;;;;;;;;5055430;28;20505;-78
2022/03/11 07:16:14;;;;;;;13.00;10.20;;;;;;;;;;5056243;28;20448;-75
2022/03/11 07:18:41;;;;;;;12.30;8.80;;;;;;;;;;5056285;28;20923;-77
2022/03/11 07:21:09;;;;;;;11.17;9.30;;;;;;;;;;5057756;28;20437;-77
2022/03/11 07:23:36;;;;;;;11.27;9.30;;;;;;;;;;5056663;28;20465;-76
2022/03/11 07:26:03;;;;;;;10.57;9.50;;;;;;;;;;5054831;28;20515;-77
2022/03/11 07:28:30;;;;;;;11.40;9.40;;;;;;;;;;5055380;28;20442;-77
2022/03/11 07:30:57;;;;;;;10.17;9.20;;;;;;;;;;5055449;28;20441;-76
2022/03/11 07:33:26;;;;;;;10.50;9.20;;;;;;;;;;5054692;28;20488;-78
2022/03/11 07:35:53;;;;;;;10.60;9.10;;;;;;;;;;5054607;28;20446;-78
2022/03/11 07:38:20;;;;;;;11.57;9.67;;;;;;;;;;5054104;28;20489;-77
2022/03/11 07:40:47;;;;;;;11.50;8.90;;;;;;;;;;5036142;28;20460;-77
2022/03/11 07:43:14;;;;;;;11.87;9.83;;;;;;;;;;5040152;28;20977;-77
2022/03/11 07:45:41;;;;;;;10.30;9.17;;;;;;;;;;5051663;28;20453;-77
2022/03/11 07:48:08;;;;;;;10.97;9.77;;;;;;;;;;5047838;28;20825;-77
2022/03/11 07:50:36;;;;;;;13.90;10.80;;;;;;;;;;5047379;28;20958;-78
2022/03/11 07:53:03;;;;;;;10.50;9.10;;;;;;;;;;5053465;28;20465;-76
2022/03/11 07:55:30;;;;;;;12.43;10.10;;;;;;;;;;5053382;28;20999;-77
2022/03/11 07:57:57;;;;;;;11.10;8.93;;;;;;;;;;5053452;28;20477;-78
2022/03/11 08:00:25;;;;;;;11.10;10.00;;;;;;;;;;5053679;28;20917;-78
2022/03/11 08:02:52;;;;;;;11.70;10.03;;;;;;;;;;5053691;28;20470;-77
2022/03/11 08:05:19;;;;;;;11.20;10.07;;;;;;;;;;5053909;28;20448;-78
2022/03/11 08:07:48;;;;;;;11.30;9.40;;;;;;;;;;5053925;28;20456;-77
2022/03/11 08:10:15;;;;;;;11.07;9.60;;;;;;;;;;5054263;28;20781;-78
2022/03/11 08:12:42;;;;;;;12.30;10.47;;;;;;;;;;5053249;28;20468;-77
2022/03/11 08:15:11;;;;;;;11.90;9.23;;;;;;;;;;5054534;28;20472;-78
2022/03/11 08:17:39;;;;;;;12.25;10.90;;;;;;;;;;5054143;28;20527;-77
2022/03/11 08:20:07;;;;;;;12.57;11.10;;;;;;;;;;5053961;28;20480;-78
2022/03/11 08:22:34;;;;;;;13.80;10.53;;;;;;;;;;5053685;28;20466;-79
2022/03/11 08:25:03;;;;;;;19.03;11.77;;;;;;;;;;5053651;28;20480;-79
2022/03/11 08:27:30;;;;;;;14.23;11.17;;;;;;;;;;5054117;28;20434;-78
2022/03/11 08:29:57;;;;;;;15.50;11.77;;;;;;;;;;5053643;28;20430;-78
2022/03/11 08:32:24;;;;;;;15.00;11.90;;;;;;;;;;5053276;28;20465;-78
2022/03/11 08:34:52;;;;;;;13.20;11.47;;;;;;;;;;5053396;28;20444;-78
2022/03/11 08:37:20;;;;;;;15.60;11.63;;;;;;;;;;5053929;28;20675;-78
2022/03/11 08:39:47;;;;;;;12.73;10.57;;;;;;;;;;5053351;28;20489;-77
2022/03/11 08:42:15;;;;;;;13.20;11.00;;;;;;;;;;5053619;28;20981;-78
2022/03/11 08:44:42;;;;;;;15.43;10.67;;;;;;;;;;5053409;28;20952;-78
2022/03/11 08:47:10;;;;;;;12.03;10.50;;;;;;;;;;5052468;28;21003;-77
2022/03/11 08:49:37;;;;;;;14.50;12.10;;;;;;;;;;5053282;28;20532;-78
2022/03/11 08:52:04;;;;;;;13.50;10.50;;;;;;;;;;5052583;28;20473;-78
2022/03/11 08:54:31;;;;;;;12.33;11.03;;;;;;;;;;5052636;28;20788;-78
2022/03/11 08:56:59;;;;;;;17.40;11.97;;;;;;;;;;5052716;28;20449;-78
2022/03/11 08:59:30;;;;;;;11.63;10.30;;;;;;;;;;5052487;28;20863;-79
2022/03/11 09:01:57;;;;;;;17.70;12.33;;;;;;;;;;5055175;28;20457;-79
2022/03/11 09:04:24;;;;;;;12.87;10.27;;;;;;;;;;5052899;28;20441;-78
2022/03/11 09:06:51;;;;;;;14.10;10.87;;;;;;;;;;5052264;28;20960;-78
2022/03/11 09:09:18;;;;;;;11.93;10.63;;;;;;;;;;5052759;28;20520;-79
2022/03/11 09:11:45;;;;;;;11.17;10.07;;;;;;;;;;5052537;28;21117;-78
2022/03/11 09:14:12;;;;;;;12.03;10.80;;;;;;;;;;5052663;28;20820;-80
2022/03/11 09:16:41;;;;;;;11.87;10.53;;;;;;;;;;5052795;28;20445;-78
2022/03/11 09:19:08;;;;;;;15.93;12.20;;;;;;;;;;5052458;28;20491;-80
2022/03/11 09:21:35;;;;;;;18.07;11.40;;;;;;;;;;5049575;28;20477;-79
2022/03/11 09:24:03;;;;;;;12.80;10.80;;;;;;;;;;5033996;28;20453;-79
2022/03/11 09:26:30;;;;;;;12.87;11.50;;;;;;;;;;5060081;28;20440;-77
2022/03/11 09:28:57;;;;;;;12.57;11.27;;;;;;;;;;5072754;28;20547;-80
2022/03/11 09:31:24;;;;;;;12.00;10.70;;;;;;;;;;5074128;28;20445;-78
2022/03/11 09:33:53;;;;;;;16.53;11.27;;;;;;;;;;5073443;28;20444;-78
2022/03/11 09:36:20;;;;;;;13.50;11.90;;;;;;;;;;5072885;28;20802;-81
2022/03/11 09:38:47;;;;;;;13.63;10.70;;;;;;;;;;5072566;28;20477;-78
2022/03/11 09:41:14;;;;;;;12.43;10.67;;;;;;;;;;5072818;28;20436;-79
2022/03/11 09:43:41;;;;;;;14.40;11.77;;;;;;;;;;5072937;28;20463;-78
2022/03/11 09:46:08;;;;;;;12.43;11.00;;;;;;;;;;5073196;28;20800;-79
2022/03/11 09:48:36;;;;;;;15.00;10.83;;;;;;;;;;5072391;28;20437;-79
2022/03/11 09:51:04;;;;;;;11.73;10.53;;;;;;;;;;5072475;28;20453;-78
2022/03/11 09:53:31;;;;;;;12.63;11.33;;;;;;;;;;5072402;28;20468;-78
2022/03/11 09:55:58;;;;;;;13.20;11.90;;;;;;;;;;5071565;28;20510;-77
2022/03/11 09:58:25;;;;;;;12.87;11.60;;;;;;;;;;5073599;28;20446;-78
2022/03/11 10:00:52;;;;;;;14.10;11.67;;;;;;;;;;5075840;28;20846;-79
2022/03/11 10:03:19;;;;;;;13.67;11.53;;;;;;;;;;5077249;28;20460;-77
2022/03/11 10:05:51;;;;;;;15.30;12.13;;;;;;;;;;5078262;28;20448;-78
2022/03/11 10:08:30;;;;;;;12.50;11.07;;;;;;;;;;5076852;28;20468;-78
2022/03/11 10:11:09;;;;;;;13.53;11.10;;;;;;;;;;5075989;28;20500;-79
2022/03/11 10:13:38;;;;;;;14.70;12.10;;;;;;;;;;5076680;28;20456;-79
2022/03/11 10:16:17;;;;;;;12.53;11.33;;;;;;;;;;5076017;28;20443;-80
2022/03/11 10:18:53;;;;;;;12.77;11.27;;;;;;;;;;5077393;28;20460;-81
2022/03/11 10:21:20;;;;;;;13.40;11.50;;;;;;;;;;5078970;28;20484;-79
2022/03/11 10:23:51;;;;;;;12.97;11.47;;;;;;;;;;5078344;28;20478;-80
2022/03/11 10:26:30;;;;;;;13.63;12.23;;;;;;;;;;5079160;28;20433;-81
2022/03/11 10:28:58;;;;;;;13.03;11.73;;;;;;;;;;5077808;28;20791;-78
2022/03/11 10:31:30;;;;;;;16.23;11.80;;;;;;;;;;5078445;28;20528;-80
2022/03/11 10:34:12;;;;;;;13.23;11.83;;;;;;;;;;5077438;28;21005;-80
2022/03/11 10:36:46;;;;;;;13.27;11.87;;;;;;;;;;5077428;28;20429;-80
2022/03/11 10:39:15;;;;;;;14.97;11.80;;;;;;;;;;5075727;28;20512;-79
2022/03/11 10:41:42;;;;;;;12.07;10.80;;;;;;;;;;5075637;28;20548;-78
2022/03/11 10:44:09;;;;;;;12.73;10.60;;;;;;;;;;5075275;28;20510;-79
2022/03/11 10:46:36;;;;;;;14.63;13.13;;;;;;;;;;5075401;28;20466;-79
2022/03/11 10:49:04;;;;;;;14.57;11.20;;;;;;;;;;5068797;28;20449;-77
2022/03/11 10:51:33;;;;;;;12.53;11.30;;;;;;;;;;5040398;28;20450;-80
2022/03/11 10:54:00;;;;;;;13.83;10.77;;;;;;;;;;5071501;28;20852;-80
2022/03/11 10:56:33;;;;;;;12.43;11.27;;;;;;;;;;5073499;28;20452;-78
2022/03/11 10:59:00;;;;;;;12.80;11.50;;;;;;;;;;5074757;28;20557;-80
2022/03/11 11:01:40;;;;;;;15.67;14.00;;;;;;;;;;5075768;28;20448;-79
2022/03/11 11:04:08;;;;;;;16.43;12.30;;;;;;;;;;5074068;28;20448;-81
2022/03/11 11:06:36;;;;;;;13.07;11.73;;;;;;;;;;5057227;28;20450;-78
2022/03/11 11:09:03;;;;;;;13.60;12.20;;;;;;;;;;5055565;28;20524;-79
2022/03/11 11:11:33;;;;;;;14.43;11.77;;;;;;;;;;5054242;28;20499;-79
2022/03/11 11:14:00;;;;;;;14.37;11.90;;;;;;;;;;5055952;28;20453;-79
2022/03/11 11:16:28;;;;;;;13.33;11.73;;;;;;;;;;5054931;28;20441;-80
2022/03/11 11:18:58;;;;;;;15.40;12.37;;;;;;;;;;5054564;28;20477;-79
2022/03/11 11:21:25;;;;;;;13.10;11.80;;;;;;;;;;5054938;28;20813;-79
2022/03/11 11:23:55;;;;;;;13.43;11.77;;;;;;;;;;5054203;28;20448;-80
2022/03/11 11:26:23;;;;;;;14.23;12.80;;;;;;;;;;5054730;28;20475;-79
2022/03/11 11:28:52;;;;;;;14.10;12.50;;;;;;;;;;5054540;28;20446;-78
2022/03/11 11:31:20;;;;;;;14.23;12.73;;;;;;;;;;5054904;28;20446;-78
2022/03/11 11:33:47;;;;;;;14.43;12.93;;;;;;;;;;5053819;28;20914;-79
2022/03/11 11:36:14;;;;;;;13.67;12.23;;;;;;;;;;5054227;28;20446;-80
2022/03/11 11:38:46;;;;;;;12.70;11.60;;;;;;;;;;5053885;28;20812;-78
2022/03/11 11:41:25;;;;;;;12.83;11.33;;;;;;;;;;5054819;28;20570;-80
2022/03/11 11:43:54;;;;;;;12.60;11.30;;;;;;;;;;5053867;28;20437;-79
2022/03/11 11:46:22;;;;;;;13.40;12.20;;;;;;;;;;5054713;28;20442;-78
2022/03/11 11:49:02;;;;;;;14.13;12.63;;;;;;;;;;5054505;28;20540;-79
2022/03/11 11:51:47;;;;;;;13.03;11.80;;;;;;;;;;5054142;28;20799;-78
2022/03/11 11:54:14;;;;;;;12.17;11.00;;;;;;;;;;5054570;28;20456;-79
2022/03/11 11:56:44;;;;;;;12.97;11.40;;;;;;;;;;5054340;28;20817;-77
2022/03/11 11:59:17;;;;;;;13.10;11.80;;;;;;;;;;5057438;28;20478;-80
2022/03/11 12:01:45;;;;;;;14.70;12.53;;;;;;;;;;5059755;28;20466;-79
2022/03/11 12:04:22;;;;;;;16.47;12.83;;;;;;;;;;5059167;28;20541;-78
2022/03/11 12:06:59;;;;;;;12.83;11.63;;;;;;;;;;5059534;28;20473;-78
2022/03/11 12:09:47;;;;;;;13.37;12.00;;;;;;;;;;5059614;28;20488;-79
2022/03/11 12:12:32;;;;;;;12.33;11.13;;;;;;;;;;5054032;28;20469;-79
2022/03/11 12:15:17;;;;;;;13.50;11.47;;;;;;;;;;5053606;28;20941;-79
2022/03/11 12:17:47;;;;;;;13.97;12.33;;;;;;;;;;5053470;28;20575;-77
2022/03/11 12:20:34;;;;;;;14.83;12.13;;;;;;;;;;5054109;28;20513;-77
2022/03/11 12:23:03;;;;;;;13.10;11.70;;;;;;;;;;5051900;28;20811;-77
2022/03/11 12:25:31;;;;;;;12.97;11.77;;;;;;;;;;5053189;28;20453;-80
2022/03/11 12:27:59;;;;;;;13.20;11.90;;;;;;;;;;5052666;28;20490;-79
2022/03/11 12:30:26;;;;;;;13.00;11.80;;;;;;;;;;5052803;28;20477;-80
2022/03/11 12:32:54;;;;;;;13.90;12.53;;;;;;;;;;5052679;28;20497;-77
2022/03/11 12:35:22;;;;;;;13.70;12.40;;;;;;;;;;5053079;28;20450;-78
2022/03/11 12:37:49;;;;;;;13.77;12.37;;;;;;;;;;5053311;28;20988;-77
2022/03/11 12:40:16;;;;;;;13.53;12.30;;;;;;;;;;5053195;28;20485;-78
2022/03/11 12:42:44;;;;;;;14.23;12.83;;;;;;;;;;5053375;28;20465;-79
2022/03/11 12:45:13;;;;;;;13.00;11.80;;;;;;;;;;5053367;28;20820;-78
2022/03/11 12:47:41;;;;;;;13.40;12.07;;;;;;;;;;5054436;28;21055;-77
2022/03/11 12:50:12;;;;;;;13.03;11.83;;;;;;;;;;5054324;28;20454;-78
2022/03/11 12:52:39;;;;;;;13.70;12.10;;;;;;;;;;5054200;28;20473;-80
2022/03/11 12:55:22;;;;;;;13.30;12.03;;;;;;;;;;5054433;28;20452;-78
2022/03/11 12:57:52;;;;;;;12.63;11.50;;;;;;;;;;5052667;28;20445;-79
2022/03/11 13:00:20;;;;;;;14.43;12.97;;;;;;;;;;5053119;28;20477;-78
2022/03/11 13:02:47;;;;;;;13.10;11.67;;;;;;;;;;5053186;28;20453;-79
2022/03/11 13:05:23;;;;;;;14.00;11.20;;;;;;;;;;5053684;28;20473;-80
2022/03/11 13:07:50;;;;;;;13.60;12.30;;;;;;;;;;5053180;28;20445;-80
2022/03/11 13:10:18;;;;;;;13.93;12.20;;;;;;;;;;5053782;28;20442;-79
2022/03/11 13:12:45;;;;;;;15.30;13.60;;;;;;;;;;5053780;28;20529;-78
2022/03/11 13:15:13;;;;;;;13.87;11.87;;;;;;;;;;5054395;28;20450;-78
2022/03/11 13:17:47;;;;;;;15.70;13.43;;;;;;;;;;5053779;28;20434;-79
2022/03/11 13:20:32;;;;;;;13.70;12.40;;;;;;;;;;5052788;28;20473;-78
2022/03/11 13:23:01;;;;;;;12.90;11.67;;;;;;;;;;5053581;28;20488;-81
2022/03/11 13:25:29;;;;;;;15.70;12.93;;;;;;;;;;5058260;28;20464;-79
2022/03/11 13:27:58;;;;;;;14.40;13.07;;;;;;;;;;5063514;28;20442;-80
2022/03/11 13:30:32;;;;;;;13.43;12.13;;;;;;;;;;5057384;28;20441;-78
2022/03/11 13:33:10;;;;;;;15.13;13.53;;;;;;;;;;5054284;28;20469;-78
2022/03/11 13:35:37;;;;;;;13.97;12.63;;;;;;;;;;5061574;28;20421;-78
2022/03/11 13:38:06;;;;;;;14.70;13.00;;;;;;;;;;5060838;28;20853;-79
2022/03/11 13:40:33;;;;;;;13.73;12.33;;;;;;;;;;5058898;28;20473;-80
2022/03/11 13:43:01;;;;;;;13.53;12.10;;;;;;;;;;5052385;28;20535;-80
2022/03/11 13:45:28;;;;;;;13.63;12.33;;;;;;;;;;5052322;28;20830;-79
2022/03/11 13:48:02;;;;;;;12.80;11.63;;;;;;;;;;5052024;28;21084;-79
2022/03/11 13:50:29;;;;;;;14.43;12.90;;;;;;;;;;5051977;28;20528;-78
2022/03/11 13:52:58;;;;;;;14.20;12.30;;;;;;;;;;5051860;28;20515;-78
2022/03/11 13:55:34;;;;;;;17.50;13.30;;;;;;;;;;5052405;28;20888;-78
2022/03/11 13:58:13;;;;;;;12.93;11.60;;;;;;;;;;5051562;28;20426;-77
2022/03/11 14:00:41;;;;;;;12.90;11.60;;;;;;;;;;5051804;28;20575;-78
2022/03/11 14:03:18;;;;;;;13.10;11.90;;;;;;;;;;5051600;28;20465;-77
2022/03/11 14:05:45;;;;;;;13.00;11.80;;;;;;;;;;5051599;28;20818;-79
2022/03/11 14:08:14;;;;;;;13.93;12.60;;;;;;;;;;5051580;28;20452;-78
2022/03/11 14:10:43;;;;;;;17.57;13.70;;;;;;;;;;5051465;28;20449;-78
2022/03/11 14:13:13;;;;;;;12.97;11.77;;;;;;;;;;5051340;28;20565;-78
2022/03/11 14:15:41;;;;;;;13.13;11.90;;;;;;;;;;5051549;28;20991;-78
2022/03/11 14:18:11;;;;;;;15.37;12.70;;;;;;;;;;5051557;28;20460;-79
2022/03/11 14:20:39;;;;;;;15.90;14.37;;;;;;;;;;5051510;28;20477;-79
2022/03/11 14:23:06;;;;;;;14.30;12.90;;;;;;;;;;5051021;28;20473;-78
2022/03/11 14:25:33;;;;;;;14.00;12.60;;;;;;;;;;5051325;28;20487;-78